Time;durP1;ratioP1;P1;durP2;ratioP2;P2;SDS_P1;SDS_P2;PMS_P1;PMS_P2;Temp;Humidity;BMP_temperature;BMP_pressure;BME280_temperature;BME280_humidity;BME280_pressure;Samples;Min_cycle;Max_cycle;Signal;HPM_P1;HPM_P2
2023/03/24 00:00:47;;;;;;;;;;;;;;;16.06;70.23;99379.16;1059422;27;1732;-67
2023/03/24 00:01:37;;;;;;;;;;;;;;;16.06;70.12;99376.47;1056647;28;661;-66
2023/03/24 00:02:28;;;;;;;;;;;;;;;16.06;70.32;99373.78;1056219;28;1020;-66
2023/03/24 00:03:18;;;;;;;;;;;;;;;16.04;70.22;99368.56;1056435;28;613;-66
2023/03/24 00:04:08;;;;;;;;;;;;;;;16.06;69.85;99374.63;1055321;28;1000;-66
2023/03/24 00:04:59;;;;;;;;;;;;;;;16.05;70.15;99370.25;1059079;27;1628;-67
2023/03/24 00:05:49;;;;;;;;;;;;;;;16.06;69.99;99363.03;1056699;28;1256;-66
2023/03/24 00:06:40;;;;;;;;;;;;;;;16.05;70.10;99364.88;1056696;28;725;-66
2023/03/24 00:07:32;;;;;;;;;;;;;;;16.04;70.31;99360.50;1052337;28;693;-66
2023/03/24 00:08:23;;;;;;;;;;;;;;;16.05;70.19;99348.75;1055026;28;1169;-67
2023/03/24 00:09:13;;;;;;;;;;;;;;;16.03;70.51;99364.22;1049674;28;669;-67
2023/03/24 00:10:05;;;;;;;;;;;;;;;16.03;70.08;99353.47;1049582;28;1115;-66
2023/03/24 00:10:55;;;;;;;;;;;;;;;16.04;70.15;99357.81;1057319;27;1522;-66
2023/03/24 00:11:46;;;;;;;;;;;;;;;16.04;70.28;99354.31;1053148;28;703;-67
2023/03/24 00:12:41;;;;;;;;;;;;;;;16.03;70.54;99353.47;1055659;28;1134;-66
2023/03/24 00:13:36;;;;;;;;;;;;;;;16.04;70.23;99344.38;1055648;28;637;-66
2023/03/24 00:14:29;;;;;;;;;;;;;;;16.02;70.10;99341.03;1053185;28;726;-66
2023/03/24 00:15:20;;;;;;;;;;;;;;;16.03;70.58;99353.47;1058208;27;888;-66
2023/03/24 00:16:10;;;;;;;;;;;;;;;16.03;70.36;99340.03;1059099;27;1953;-66
2023/03/24 00:17:01;;;;;;;;;;;;;;;16.02;70.31;99343.72;1056788;28;785;-67
2023/03/24 00:17:51;;;;;;;;;;;;;;;16.01;70.48;99349.25;1055930;28;700;-66
2023/03/24 00:18:41;;;;;;;;;;;;;;;16.01;70.00;99339.34;1052817;28;690;-66
2023/03/24 00:19:32;;;;;;;;;;;;;;;16.01;70.31;99336.66;1053170;28;696;-66
2023/03/24 00:20:23;;;;;;;;;;;;;;;16.02;70.25;99337.50;1053105;28;731;-66
2023/03/24 00:21:14;;;;;;;;;;;;;;;16.01;69.80;99331.28;1052880;28;681;-66
2023/03/24 00:22:05;;;;;;;;;;;;;;;16.00;70.36;99332.31;1056867;28;1502;-66
2023/03/24 00:22:57;;;;;;;;;;;;;;;16.01;70.20;99335.81;1057020;28;708;-66
2023/03/24 00:23:48;;;;;;;;;;;;;;;16.00;70.34;99329.63;1058262;27;1497;-66
2023/03/24 00:24:39;;;;;;;;;;;;;;;15.98;70.29;99319.03;1056586;28;1233;-66
2023/03/24 00:25:34;;;;;;;;;;;;;;;15.99;70.29;99322.56;1054305;28;716;-66
2023/03/24 00:26:25;;;;;;;;;;;;;;;15.98;70.54;99319.03;1059221;27;869;-66
2023/03/24 00:27:17;;;;;;;;;;;;;;;15.99;69.81;99309.13;1055986;28;636;-66
2023/03/24 00:28:08;;;;;;;;;;;;;;;15.98;70.42;99308.28;1057937;27;1541;-66
2023/03/24 00:29:00;;;;;;;;;;;;;;;16.00;70.53;99310.81;1060985;27;1438;-66
2023/03/24 00:29:51;;;;;;;;;;;;;;;16.00;70.21;99318.03;1055357;28;638;-66
2023/03/24 00:30:41;;;;;;;;;;;;;;;16.00;70.28;99304.59;1061423;27;1360;-65
2023/03/24 00:31:32;;;;;;;;;;;;;;;15.98;70.14;99313.66;1056845;28;1039;-66
2023/03/24 00:32:22;;;;;;;;;;;;;;;15.98;70.68;99302.91;1055357;28;610;-65
2023/03/24 00:33:13;;;;;;;;;;;;;;;15.99;70.55;99311.81;1052409;28;626;-66
2023/03/24 00:34:05;;;;;;;;;;;;;;;15.99;70.30;99309.13;1053128;28;1064;-66
2023/03/24 00:34:56;;;;;;;;;;;;;;;15.98;70.47;99312.81;1053078;28;673;-65
2023/03/24 00:35:47;;;;;;;;;;;;;;;16.00;70.36;99309.97;1052306;28;650;-65
2023/03/24 00:36:37;;;;;;;;;;;;;;;15.98;70.31;99302.91;1052900;28;693;-65
2023/03/24 00:37:28;;;;;;;;;;;;;;;15.98;70.37;99302.91;1052937;28;701;-65
2023/03/24 00:38:18;;;;;;;;;;;;;;;15.98;70.38;99302.91;1052813;28;626;-67
2023/03/24 00:39:08;;;;;;;;;;;;;;;15.99;70.32;99306.44;1055280;28;1130;-66
2023/03/24 00:39:59;;;;;;;;;;;;;;;15.98;70.39;99312.81;1048537;28;681;-66
2023/03/24 00:40:50;;;;;;;;;;;;;;;16.00;70.28;99305.44;1054497;28;1267;-66
2023/03/24 00:41:43;;;;;;;;;;;;;;;15.98;70.59;99313.66;1056991;28;676;-66
2023/03/24 00:42:35;;;;;;;;;;;;;;;16.00;70.77;99307.28;1054257;28;1027;-66
2023/03/24 00:43:26;;;;;;;;;;;;;;;15.98;70.38;99300.22;1057165;28;649;-66
2023/03/24 00:44:16;;;;;;;;;;;;;;;15.98;70.61;99294.00;1056377;28;1098;-66
2023/03/24 00:45:08;;;;;;;;;;;;;;;15.97;70.66;99311.13;1056728;28;637;-66
2023/03/24 00:46:00;;;;;;;;;;;;;;;15.97;70.36;99305.78;1055798;28;745;-66
2023/03/24 00:46:57;;;;;;;;;;;;;;;15.96;70.58;99309.47;1057485;27;1384;-66
2023/03/24 00:47:48;;;;;;;;;;;;;;;15.97;70.44;99305.78;1053408;28;629;-66
2023/03/24 00:48:40;;;;;;;;;;;;;;;15.96;70.91;99298.72;1055414;28;1135;-66
2023/03/24 00:49:43;;;;;;;;;;;;;;;15.96;70.56;99298.72;1054569;28;661;-66
2023/03/24 00:50:34;;;;;;;;;;;;;;;15.97;70.51;99284.28;1055785;28;951;-66
2023/03/24 00:51:24;;;;;;;;;;;;;;;15.97;70.20;99290.50;1055838;28;614;-66
2023/03/24 00:52:16;;;;;;;;;;;;;;;15.97;70.52;99295.03;1057496;28;1015;-66
2023/03/24 00:53:08;;;;;;;;;;;;;;;15.96;70.39;99301.41;1053556;28;720;-67
2023/03/24 00:54:00;;;;;;;;;;;;;;;15.97;70.56;99322.72;1052358;28;1403;-66
2023/03/24 00:54:51;;;;;;;;;;;;;;;15.97;71.05;99308.47;1055273;28;1055;-67
2023/03/24 00:55:41;;;;;;;;;;;;;;;15.97;70.76;99311.97;1053401;28;748;-67
2023/03/24 00:56:32;;;;;;;;;;;;;;;15.97;70.77;99305.78;1057043;27;1389;-66
2023/03/24 00:57:22;;;;;;;;;;;;;;;15.98;70.26;99307.44;1053235;28;719;-67
2023/03/24 00:58:16;;;;;;;;;;;;;;;15.98;70.69;99302.06;1053172;28;1076;-67
2023/03/24 00:59:08;;;;;;;;;;;;;;;15.99;70.60;99303.75;1053445;28;652;-67
2023/03/24 01:00:02;;;;;;;;;;;;;;;15.99;70.65;99295.69;1056109;28;1562;-66
2023/03/24 01:00:56;;;;;;;;;;;;;;;15.98;70.84;99286.78;1055901;28;1170;-66
2023/03/24 01:01:46;;;;;;;;;;;;;;;16.00;70.71;99296.53;1055807;27;1379;-66
2023/03/24 01:02:37;;;;;;;;;;;;;;;15.98;70.69;99291.31;1053916;28;987;-66
2023/03/24 01:03:27;;;;;;;;;;;;;;;16.00;70.94;99289.31;1056120;28;813;-66
2023/03/24 01:04:19;;;;;;;;;;;;;;;16.00;70.57;99291.16;1056250;28;951;-67
2023/03/24 01:05:10;;;;;;;;;;;;;;;15.98;71.06;99273.34;1056438;28;903;-65
2023/03/24 01:06:00;;;;;;;;;;;;;;;15.97;70.75;99277.06;1056674;28;1715;-66
2023/03/24 01:06:51;;;;;;;;;;;;;;;15.96;70.72;99270.00;1057037;28;833;-66
2023/03/24 01:07:42;;;;;;;;;;;;;;;15.96;70.83;99275.38;1056355;27;1636;-66
2023/03/24 01:08:32;;;;;;;;;;;;;;;15.96;70.66;99270.00;1053377;28;617;-66
2023/03/24 01:09:22;;;;;;;;;;;;;;;15.96;70.47;99264.63;1056006;28;1199;-65
2023/03/24 01:10:13;;;;;;;;;;;;;;;15.96;70.57;99267.31;1058256;27;1546;-66
2023/03/24 01:11:03;;;;;;;;;;;;;;;15.95;70.78;99278.22;1055725;28;644;-66
2023/03/24 01:11:54;;;;;;;;;;;;;;;15.94;70.67;99271.22;1056503;27;1518;-66
2023/03/24 01:12:45;;;;;;;;;;;;;;;15.92;71.02;99268.69;1053019;28;723;-67
2023/03/24 01:13:35;;;;;;;;;;;;;;;15.94;70.69;99265.84;1053314;28;1114;-66
2023/03/24 01:14:26;;;;;;;;;;;;;;;15.94;70.73;99279.28;1056041;28;721;-66
2023/03/24 01:15:16;;;;;;;;;;;;;;;15.95;70.58;99270.16;1052071;28;653;-67
2023/03/24 01:16:07;;;;;;;;;;;;;;;15.94;70.95;99257.78;1054724;28;1882;-66
2023/03/24 01:16:57;;;;;;;;;;;;;;;15.93;70.81;99266.84;1058405;27;1498;-66
2023/03/24 01:17:48;;;;;;;;;;;;;;;15.94;70.87;99257.78;1060194;27;1369;-66
2023/03/24 01:18:39;;;;;;;;;;;;;;;15.94;71.17;99257.78;1062406;27;698;-66
2023/03/24 01:19:31;;;;;;;;;;;;;;;15.94;70.84;99247.03;1055508;28;669;-66
2023/03/24 01:20:22;;;;;;;;;;;;;;;15.94;71.07;99255.09;1055983;28;657;-66
2023/03/24 01:21:13;;;;;;;;;;;;;;;15.93;70.65;99261.47;1055896;28;1641;-67
2023/03/24 01:22:03;;;;;;;;;;;;;;;15.93;71.24;99251.56;1056964;28;669;-66
2023/03/24 01:22:54;;;;;;;;;;;;;;;15.92;71.24;99260.63;1057109;27;1209;-66
2023/03/24 01:23:44;;;;;;;;;;;;;;;15.92;71.34;99251.75;1060382;27;708;-66
2023/03/24 01:24:34;;;;;;;;;;;;;;;15.94;70.78;99252.41;1052771;28;669;-66
2023/03/24 01:25:26;;;;;;;;;;;;;;;15.93;70.86;99264.16;1059515;27;1403;-67
2023/03/24 01:26:17;;;;;;;;;;;;;;;15.91;70.74;99250.91;1053593;28;1133;-67
2023/03/24 01:27:07;;;;;;;;;;;;;;;15.92;70.80;99254.41;1058824;27;1593;-67
2023/03/24 01:27:57;;;;;;;;;;;;;;;15.91;70.95;99252.75;1052665;28;629;-67
2023/03/24 01:28:48;;;;;;;;;;;;;;;15.92;70.93;99241.00;1056598;28;1430;-67
2023/03/24 01:29:38;;;;;;;;;;;;;;;15.92;71.16;99246.38;1051958;28;646;-67
2023/03/24 01:30:29;;;;;;;;;;;;;;;15.93;70.73;99245.34;1052821;28;1245;-67
2023/03/24 01:31:19;;;;;;;;;;;;;;;15.92;70.92;99238.31;1056624;27;1211;-67
2023/03/24 01:32:10;;;;;;;;;;;;;;;15.92;70.61;99238.31;1054621;28;681;-67
2023/03/24 01:33:00;;;;;;;;;;;;;;;15.92;70.60;99249.06;1055498;27;1470;-67
2023/03/24 01:33:51;;;;;;;;;;;;;;;15.90;70.53;99248.38;1057964;27;1068;-67
2023/03/24 01:34:41;;;;;;;;;;;;;;;15.90;70.75;99234.94;1053075;28;1412;-67
2023/03/24 01:35:31;;;;;;;;;;;;;;;15.90;70.65;99235.78;1057051;28;1161;-67
2023/03/24 01:36:22;;;;;;;;;;;;;;;15.90;70.71;99241.16;1056731;28;1953;-67
2023/03/24 01:37:12;;;;;;;;;;;;;;;15.91;70.67;99237.47;1056784;28;756;-68
2023/03/24 01:38:03;;;;;;;;;;;;;;;15.90;70.30;99235.78;1056140;28;1118;-67
2023/03/24 01:38:53;;;;;;;;;;;;;;;15.92;70.68;99238.31;1053815;28;633;-67
2023/03/24 01:39:44;;;;;;;;;;;;;;;15.90;70.78;99229.56;1057628;27;1613;-67
2023/03/24 01:40:34;;;;;;;;;;;;;;;15.91;70.51;99239.31;1058900;27;1140;-67
2023/03/24 01:41:25;;;;;;;;;;;;;;;15.90;70.83;99224.19;1057089;28;1153;-67
2023/03/24 01:42:15;;;;;;;;;;;;;;;15.90;70.58;99225.03;1052281;28;629;-67
2023/03/24 01:43:06;;;;;;;;;;;;;;;15.91;70.19;99217.81;1052594;28;697;-66
2023/03/24 01:43:56;;;;;;;;;;;;;;;15.92;70.50;99227.56;1054050;28;1020;-66
2023/03/24 01:44:47;;;;;;;;;;;;;;;15.90;70.16;99216.97;1056657;27;1561;-67
2023/03/24 01:45:37;;;;;;;;;;;;;;;15.90;70.52;99230.41;1058796;27;1450;-67
2023/03/24 01:46:28;;;;;;;;;;;;;;;15.89;70.61;99219.84;1053459;28;609;-66
2023/03/24 01:47:19;;;;;;;;;;;;;;;15.88;70.69;99220.84;1051658;28;1392;-66
2023/03/24 01:48:09;;;;;;;;;;;;;;;15.86;70.75;99222.88;1053125;28;646;-67
2023/03/24 01:49:00;;;;;;;;;;;;;;;15.86;70.38;99220.19;1055033;27;1563;-67
2023/03/24 01:49:50;;;;;;;;;;;;;;;15.88;70.80;99220.84;1060281;27;1430;-68
2023/03/24 01:50:40;;;;;;;;;;;;;;;15.88;70.61;99223.53;1058719;27;1090;-67
2023/03/24 01:51:33;;;;;;;;;;;;;;;15.89;70.57;99234.09;1055960;28;729;-66
2023/03/24 01:52:24;;;;;;;;;;;;;;;15.89;70.48;99228.75;1055567;28;1106;-66
2023/03/24 01:53:14;;;;;;;;;;;;;;;15.89;70.61;99228.75;1056693;28;754;-67
2023/03/24 01:54:05;;;;;;;;;;;;;;;15.88;70.48;99232.44;1056216;28;677;-66
2023/03/24 01:54:55;;;;;;;;;;;;;;;15.88;70.41;99224.38;1056251;27;1430;-66
2023/03/24 01:55:45;;;;;;;;;;;;;;;15.88;70.97;99219.00;1057832;27;1549;-68
2023/03/24 01:56:36;;;;;;;;;;;;;;;15.89;70.61;99209.09;1058768;27;1443;-68
2023/03/24 01:57:27;;;;;;;;;;;;;;;15.89;70.45;99223.38;1060080;27;1118;-66
2023/03/24 01:58:17;;;;;;;;;;;;;;;15.88;70.29;99221.69;1056312;28;618;-67
2023/03/24 01:59:08;;;;;;;;;;;;;;;15.88;70.42;99226.22;1053468;28;1134;-67
2023/03/24 01:59:58;;;;;;;;;;;;;;;15.88;70.55;99207.41;1056448;28;1530;-67
2023/03/24 02:00:48;;;;;;;;;;;;;;;15.89;70.57;99225.22;1055770;28;1466;-66
2023/03/24 02:01:39;;;;;;;;;;;;;;;15.87;70.85;99217.31;1052944;28;1495;-66
2023/03/24 02:02:33;;;;;;;;;;;;;;;15.88;70.58;99226.22;1054344;28;1382;-66
2023/03/24 02:03:24;;;;;;;;;;;;;;;15.88;70.73;99218.16;1052022;28;633;-66
2023/03/24 02:04:14;;;;;;;;;;;;;;;15.88;70.28;99226.22;1055495;28;924;-66
2023/03/24 02:05:05;;;;;;;;;;;;;;;15.87;70.63;99221.84;1055818;28;669;-66
2023/03/24 02:05:56;;;;;;;;;;;;;;;15.86;70.74;99225.56;1055681;28;1387;-66
2023/03/24 02:06:47;;;;;;;;;;;;;;;15.86;71.25;99222.88;1055590;28;625;-66
2023/03/24 02:07:38;;;;;;;;;;;;;;;15.86;70.92;99209.44;1057059;28;720;-66
2023/03/24 02:08:28;;;;;;;;;;;;;;;15.86;71.08;99228.25;1055804;28;1118;-67
2023/03/24 02:09:19;;;;;;;;;;;;;;;15.85;70.25;99231.94;1055523;28;632;-66
2023/03/24 02:10:09;;;;;;;;;;;;;;;15.84;71.11;99241.00;1052294;28;983;-67
2023/03/24 02:11:00;;;;;;;;;;;;;;;15.85;70.92;99229.25;1053042;28;614;-66
2023/03/24 02:11:50;;;;;;;;;;;;;;;15.86;70.86;99228.25;1056277;28;1265;-67
2023/03/24 02:12:41;;;;;;;;;;;;;;;15.86;70.82;99228.25;1052568;28;618;-67
2023/03/24 02:13:31;;;;;;;;;;;;;;;15.85;70.61;99235.47;1054350;27;1284;-65
2023/03/24 02:14:21;;;;;;;;;;;;;;;15.84;70.79;99236.47;1052511;28;641;-65
2023/03/24 02:15:12;;;;;;;;;;;;;;;15.85;70.80;99240.00;1055543;28;1162;-65
2023/03/24 02:16:02;;;;;;;;;;;;;;;15.85;70.85;99248.06;1052496;28;1956;-66
2023/03/24 02:16:53;;;;;;;;;;;;;;;15.85;70.80;99240.00;1057351;28;713;-66
2023/03/24 02:17:43;;;;;;;;;;;;;;;15.85;70.93;99245.38;1055657;28;1537;-67
2023/03/24 02:18:34;;;;;;;;;;;;;;;15.86;71.03;99250.56;1054233;28;698;-66
2023/03/24 02:19:25;;;;;;;;;;;;;;;15.86;71.04;99263.16;1055890;28;701;-66
2023/03/24 02:20:15;;;;;;;;;;;;;;;15.85;70.81;99258.78;1054200;28;714;-65
2023/03/24 02:21:06;;;;;;;;;;;;;;;15.86;70.73;99258.63;1055942;28;1527;-67
2023/03/24 02:21:56;;;;;;;;;;;;;;;15.86;70.84;99263.16;1056764;27;1348;-67
2023/03/24 02:22:47;;;;;;;;;;;;;;;15.88;70.92;99271.88;1057333;28;668;-67
2023/03/24 02:23:37;;;;;;;;;;;;;;;15.86;70.86;99261.31;1055628;28;936;-67
2023/03/24 02:24:27;;;;;;;;;;;;;;;15.85;70.79;99277.59;1053302;28;1264;-67
2023/03/24 02:25:18;;;;;;;;;;;;;;;15.86;70.77;99261.31;1051526;28;749;-67
2023/03/24 02:26:08;;;;;;;;;;;;;;;15.86;71.03;99271.22;1056556;28;762;-67
2023/03/24 02:27:00;;;;;;;;;;;;;;;15.85;70.89;99274.91;1056224;28;711;-67
2023/03/24 02:27:51;;;;;;;;;;;;;;;15.84;70.80;99292.03;1055631;28;1197;-67
2023/03/24 02:28:41;;;;;;;;;;;;;;;15.84;71.03;99289.34;1055216;28;1521;-67
2023/03/24 02:29:32;;;;;;;;;;;;;;;15.83;70.80;99282.31;1055539;28;1177;-67
2023/03/24 02:30:23;;;;;;;;;;;;;;;15.85;70.96;99280.28;1053031;28;1450;-67
2023/03/24 02:31:13;;;;;;;;;;;;;;;15.85;71.16;99302.63;1056547;27;1239;-67
2023/03/24 02:32:04;;;;;;;;;;;;;;;15.86;70.95;99296.22;1052412;28;705;-67
2023/03/24 02:32:54;;;;;;;;;;;;;;;15.86;70.94;99298.91;1052971;28;702;-67
2023/03/24 02:33:44;;;;;;;;;;;;;;;15.87;71.31;99292.53;1055714;28;1541;-67
2023/03/24 02:34:35;;;;;;;;;;;;;;;15.87;71.20;99295.22;1057219;28;698;-67
2023/03/24 02:35:26;;;;;;;;;;;;;;;15.86;70.91;99298.91;1056183;28;1363;-67
2023/03/24 02:36:17;;;;;;;;;;;;;;;15.88;70.93;99312.19;1054045;28;1910;-66
2023/03/24 02:37:07;;;;;;;;;;;;;;;15.88;70.72;99314.88;1056589;28;561;-66
2023/03/24 02:37:58;;;;;;;;;;;;;;;15.89;71.00;99308.50;1057382;28;719;-67
2023/03/24 02:38:48;;;;;;;;;;;;;;;15.88;71.02;99322.94;1057717;28;1170;-67
2023/03/24 02:39:39;;;;;;;;;;;;;;;15.85;70.54;99302.63;1056886;27;1402;-67
2023/03/24 02:40:29;;;;;;;;;;;;;;;15.86;70.86;99325.78;1052778;28;1107;-67
2023/03/24 02:41:20;;;;;;;;;;;;;;;15.87;71.05;99326.63;1055593;28;1125;-67
2023/03/24 02:42:10;;;;;;;;;;;;;;;15.88;70.68;99336.38;1055346;28;1067;-67
2023/03/24 02:43:01;;;;;;;;;;;;;;;15.89;70.95;99329.97;1053190;28;750;-66
2023/03/24 02:43:51;;;;;;;;;;;;;;;15.86;71.12;99341.91;1052234;28;1087;-66
2023/03/24 02:44:42;;;;;;;;;;;;;;;15.87;71.02;99350.81;1055770;28;1482;-66
2023/03/24 02:45:32;;;;;;;;;;;;;;;15.85;71.23;99352.81;1059266;28;1251;-65
2023/03/24 02:46:23;;;;;;;;;;;;;;;15.85;70.79;99344.75;1052576;28;637;-67
2023/03/24 02:47:13;;;;;;;;;;;;;;;15.85;71.07;99366.25;1054144;28;972;-66
2023/03/24 02:48:04;;;;;;;;;;;;;;;15.85;70.45;99352.81;1052997;28;684;-66
2023/03/24 02:48:54;;;;;;;;;;;;;;;15.83;70.67;99350.28;1055766;28;1263;-66
2023/03/24 02:49:45;;;;;;;;;;;;;;;15.84;70.68;99348.44;1056035;28;629;-66
2023/03/24 02:50:35;;;;;;;;;;;;;;;15.83;70.82;99352.16;1058104;28;657;-67
2023/03/24 02:51:26;;;;;;;;;;;;;;;15.84;70.79;99348.44;1056899;28;947;-66
2023/03/24 02:52:16;;;;;;;;;;;;;;;15.82;70.86;99350.47;1054259;28;1003;-66
2023/03/24 02:53:07;;;;;;;;;;;;;;;15.84;71.43;99356.50;1057907;28;1528;-66
2023/03/24 02:53:57;;;;;;;;;;;;;;;15.84;71.33;99351.13;1056613;28;1335;-66
2023/03/24 02:54:48;;;;;;;;;;;;;;;15.84;70.82;99360.03;1060671;28;1549;-66
2023/03/24 02:55:38;;;;;;;;;;;;;;;15.83;71.18;99350.28;1056052;28;1189;-66
2023/03/24 02:56:29;;;;;;;;;;;;;;;15.83;71.10;99344.91;1056060;28;1894;-66
2023/03/24 02:57:20;;;;;;;;;;;;;;;15.83;70.92;99346.78;1052245;28;813;-67
2023/03/24 02:58:10;;;;;;;;;;;;;;;15.83;70.77;99357.50;1052923;28;1130;-66
2023/03/24 02:59:01;;;;;;;;;;;;;;;15.83;70.98;99352.97;1053002;28;638;-66
2023/03/24 02:59:51;;;;;;;;;;;;;;;15.83;71.02;99358.34;1056261;28;1566;-66
2023/03/24 03:00:45;;;;;;;;;;;;;;;15.85;70.90;99371.63;1055848;28;1537;-66
2023/03/24 03:01:36;;;;;;;;;;;;;;;15.84;70.94;99361.88;1054064;28;1127;-66
2023/03/24 03:02:27;;;;;;;;;;;;;;;15.84;70.69;99364.56;1053616;28;691;-66
2023/03/24 03:03:17;;;;;;;;;;;;;;;15.84;70.87;99376.16;1058370;28;1398;-66
2023/03/24 03:04:08;;;;;;;;;;;;;;;15.83;70.61;99373.63;1059141;28;1407;-66
2023/03/24 03:04:59;;;;;;;;;;;;;;;15.82;71.03;99377.31;1056703;28;1095;-66
2023/03/24 03:05:50;;;;;;;;;;;;;;;15.82;70.91;99382.69;1057722;28;1599;-66
2023/03/24 03:06:41;;;;;;;;;;;;;;;15.80;70.71;99365.91;1059239;28;1193;-66
2023/03/24 03:07:32;;;;;;;;;;;;;;;15.79;70.49;99375.81;1055332;28;673;-66
2023/03/24 03:08:22;;;;;;;;;;;;;;;15.80;70.93;99373.97;1056294;28;1213;-66
2023/03/24 03:09:13;;;;;;;;;;;;;;;15.79;70.79;99383.03;1060881;28;688;-66
2023/03/24 03:10:04;;;;;;;;;;;;;;;15.79;70.65;99380.34;1054741;28;689;-66
2023/03/24 03:10:55;;;;;;;;;;;;;;;15.79;71.15;99385.72;1057974;28;1644;-66
2023/03/24 03:11:45;;;;;;;;;;;;;;;15.79;70.49;99391.09;1055973;28;719;-66
2023/03/24 03:12:36;;;;;;;;;;;;;;;15.78;70.58;99384.88;1056009;28;759;-66
2023/03/24 03:13:26;;;;;;;;;;;;;;;15.79;70.31;99389.25;1057228;28;812;-66
2023/03/24 03:14:17;;;;;;;;;;;;;;;15.78;70.49;99382.19;1055429;28;745;-66
2023/03/24 03:15:07;;;;;;;;;;;;;;;15.78;70.42;99387.56;1055629;28;1031;-66
2023/03/24 03:15:58;;;;;;;;;;;;;;;15.79;70.53;99388.41;1055244;28;1565;-66
2023/03/24 03:16:48;;;;;;;;;;;;;;;15.79;70.51;99381.19;1053098;28;703;-66
2023/03/24 03:17:39;;;;;;;;;;;;;;;15.78;70.72;99386.72;1053471;28;1114;-66
2023/03/24 03:18:29;;;;;;;;;;;;;;;15.79;70.48;99391.09;1052496;28;633;-66
2023/03/24 03:19:20;;;;;;;;;;;;;;;15.78;70.34;99384.03;1059056;28;1649;-66
2023/03/24 03:20:10;;;;;;;;;;;;;;;15.78;70.50;99382.19;1052862;28;656;-66
2023/03/24 03:21:01;;;;;;;;;;;;;;;15.78;70.31;99386.72;1054795;28;1339;-65
2023/03/24 03:21:51;;;;;;;;;;;;;;;15.77;70.50;99385.03;1053017;28;787;-65
2023/03/24 03:22:42;;;;;;;;;;;;;;;15.78;70.32;99392.09;1055418;28;1040;-65
2023/03/24 03:23:33;;;;;;;;;;;;;;;15.77;70.60;99395.78;1055645;28;669;-65
2023/03/24 03:24:25;;;;;;;;;;;;;;;15.76;70.75;99392.28;1054887;28;705;-65
2023/03/24 03:25:16;;;;;;;;;;;;;;;15.75;70.27;99393.28;1059527;28;559;-65
2023/03/24 03:26:08;;;;;;;;;;;;;;;15.74;70.49;99399.69;1051783;28;956;-65
2023/03/24 03:26:59;;;;;;;;;;;;;;;15.75;70.69;99408.56;1049111;28;610;-66
2023/03/24 03:27:49;;;;;;;;;;;;;;;15.75;70.37;99400.50;1058354;28;1430;-66
2023/03/24 03:28:40;;;;;;;;;;;;;;;15.75;70.23;99420.16;1052576;28;761;-66
2023/03/24 03:29:32;;;;;;;;;;;;;;;15.76;70.58;99415.63;1056487;28;1173;-66
2023/03/24 03:30:23;;;;;;;;;;;;;;;15.75;70.25;99406.72;1053737;28;640;-66
2023/03/24 03:31:13;;;;;;;;;;;;;;;15.74;70.61;99397.00;1060020;27;1471;-66
2023/03/24 03:32:07;;;;;;;;;;;;;;;15.74;70.45;99406.88;1056075;28;687;-67
2023/03/24 03:32:59;;;;;;;;;;;;;;;15.74;70.60;99409.56;1057393;27;1537;-66
2023/03/24 03:33:50;;;;;;;;;;;;;;;15.74;70.68;99401.53;1057123;28;1092;-66
2023/03/24 03:34:40;;;;;;;;;;;;;;;15.73;70.48;99406.06;1056939;27;1533;-67
2023/03/24 03:35:30;;;;;;;;;;;;;;;15.71;70.31;99402.69;1059518;27;936;-67
2023/03/24 03:36:21;;;;;;;;;;;;;;;15.72;70.02;99419.66;1056250;28;1914;-67
2023/03/24 03:37:11;;;;;;;;;;;;;;;15.70;70.35;99408.22;1056114;28;924;-67
2023/03/24 03:38:02;;;;;;;;;;;;;;;15.71;70.31;99412.59;1056247;28;630;-67
2023/03/24 03:38:52;;;;;;;;;;;;;;;15.71;70.42;99412.59;1056314;28;1023;-67
2023/03/24 03:39:43;;;;;;;;;;;;;;;15.71;70.28;99415.28;1057028;27;1585;-67
2023/03/24 03:40:33;;;;;;;;;;;;;;;15.71;70.35;99404.53;1058434;27;1268;-66
2023/03/24 03:41:24;;;;;;;;;;;;;;;15.71;70.52;99412.59;1055503;27;707;-66
2023/03/24 03:42:14;;;;;;;;;;;;;;;15.71;70.03;99423.34;1057419;28;795;-66
2023/03/24 03:43:05;;;;;;;;;;;;;;;15.69;70.01;99419.97;1052467;28;625;-66
2023/03/24 03:43:55;;;;;;;;;;;;;;;15.69;70.26;99423.50;1052627;28;753;-66
2023/03/24 03:44:45;;;;;;;;;;;;;;;15.69;70.04;99430.72;1057640;27;1446;-67
2023/03/24 03:45:36;;;;;;;;;;;;;;;15.69;70.02;99422.66;1056695;28;610;-66
2023/03/24 03:46:26;;;;;;;;;;;;;;;15.69;70.33;99419.97;1056943;28;1091;-67
2023/03/24 03:47:17;;;;;;;;;;;;;;;15.70;70.22;99421.66;1053586;28;704;-66
2023/03/24 03:48:08;;;;;;;;;;;;;;;15.68;70.67;99429.03;1051988;28;674;-66
2023/03/24 03:48:58;;;;;;;;;;;;;;;15.67;70.15;99425.50;1053561;28;638;-66
2023/03/24 03:49:49;;;;;;;;;;;;;;;15.66;70.11;99425.66;1060287;27;1442;-67
2023/03/24 03:50:39;;;;;;;;;;;;;;;15.67;69.78;99432.72;1056651;28;634;-67
2023/03/24 03:51:30;;;;;;;;;;;;;;;15.67;70.29;99432.72;1054787;28;684;-66
2023/03/24 03:52:20;;;;;;;;;;;;;;;15.67;69.97;99430.88;1057663;27;1152;-67
2023/03/24 03:53:11;;;;;;;;;;;;;;;15.67;69.99;99443.47;1059016;27;676;-66
2023/03/24 03:54:01;;;;;;;;;;;;;;;15.66;70.29;99423.81;1059768;27;1475;-66
2023/03/24 03:54:51;;;;;;;;;;;;;;;15.67;70.26;99438.09;1058381;27;696;-67
2023/03/24 03:55:42;;;;;;;;;;;;;;;15.66;70.07;99439.94;1053567;27;1407;-66
2023/03/24 03:56:33;;;;;;;;;;;;;;;15.67;70.28;99435.41;1056739;27;1939;-66
2023/03/24 03:57:23;;;;;;;;;;;;;;;15.66;70.24;99447.16;1054140;28;656;-67
2023/03/24 03:58:14;;;;;;;;;;;;;;;15.63;70.29;99438.41;1057548;28;1339;-66
2023/03/24 03:59:05;;;;;;;;;;;;;;;15.63;70.23;99438.41;1060862;27;632;-66
2023/03/24 03:59:55;;;;;;;;;;;;;;;15.65;70.44;99453.53;1057901;27;1419;-66
2023/03/24 04:00:46;;;;;;;;;;;;;;;15.63;70.21;99451.84;1060581;27;1541;-66
2023/03/24 04:01:36;;;;;;;;;;;;;;;15.65;70.79;99453.53;1056753;28;1099;-66
2023/03/24 04:02:27;;;;;;;;;;;;;;;15.62;70.74;99458.22;1054302;28;680;-66
2023/03/24 04:03:17;;;;;;;;;;;;;;;15.63;70.42;99453.69;1054732;28;1051;-66
2023/03/24 04:04:08;;;;;;;;;;;;;;;15.63;70.29;99459.06;1060383;27;1518;-66
2023/03/24 04:04:58;;;;;;;;;;;;;;;15.62;70.21;99458.22;1053981;28;1091;-66
2023/03/24 04:05:49;;;;;;;;;;;;;;;15.60;70.25;99454.88;1056245;27;1616;-66
2023/03/24 04:06:39;;;;;;;;;;;;;;;15.59;70.14;99447.81;1057417;27;1442;-66
2023/03/24 04:07:30;;;;;;;;;;;;;;;15.59;70.49;99455.88;1057558;28;1403;-66
2023/03/24 04:08:20;;;;;;;;;;;;;;;15.60;70.37;99460.22;1052567;28;712;-66
2023/03/24 04:09:11;;;;;;;;;;;;;;;15.59;70.20;99468.44;1055799;28;633;-67
2023/03/24 04:10:02;;;;;;;;;;;;;;;15.58;70.22;99454.22;1051777;28;1033;-67
2023/03/24 04:10:52;;;;;;;;;;;;;;;15.58;70.22;99459.59;1055817;27;1426;-67
2023/03/24 04:11:43;;;;;;;;;;;;;;;15.59;70.19;99474.66;1058478;27;1173;-67
2023/03/24 04:12:33;;;;;;;;;;;;;;;15.59;69.98;99460.41;1057799;28;692;-67
2023/03/24 04:13:23;;;;;;;;;;;;;;;15.58;70.33;99461.44;1052245;28;634;-67
2023/03/24 04:14:14;;;;;;;;;;;;;;;15.57;70.14;99459.75;1056229;28;722;-67
2023/03/24 04:15:04;;;;;;;;;;;;;;;15.57;70.51;99465.97;1059898;27;1245;-67
2023/03/24 04:15:55;;;;;;;;;;;;;;;15.57;70.37;99463.28;1053381;27;1564;-66
2023/03/24 04:16:45;;;;;;;;;;;;;;;15.56;70.64;99456.22;1057049;28;717;-66
2023/03/24 04:17:36;;;;;;;;;;;;;;;15.56;70.67;99458.91;1053165;28;1115;-67
2023/03/24 04:18:26;;;;;;;;;;;;;;;15.55;70.43;99465.28;1057808;28;649;-67
2023/03/24 04:19:16;;;;;;;;;;;;;;;15.55;70.60;99461.72;1053423;28;1043;-67
2023/03/24 04:20:11;;;;;;;;;;;;;;;15.54;70.45;99463.56;1055769;28;1137;-66
2023/03/24 04:21:01;;;;;;;;;;;;;;;15.56;70.71;99468.81;1057254;27;1577;-67
2023/03/24 04:21:52;;;;;;;;;;;;;;;15.56;70.36;99469.66;1057793;28;729;-66
2023/03/24 04:22:43;;;;;;;;;;;;;;;15.55;70.49;99467.97;1055853;28;1110;-67
2023/03/24 04:23:33;;;;;;;;;;;;;;;15.55;70.95;99478.72;1054580;28;720;-66
2023/03/24 04:24:26;;;;;;;;;;;;;;;15.54;70.84;99471.63;1056029;28;771;-66
2023/03/24 04:25:16;;;;;;;;;;;;;;;15.54;70.73;99477.00;1054870;28;716;-66
2023/03/24 04:26:09;;;;;;;;;;;;;;;15.54;70.55;99477.00;1058294;27;1549;-66
2023/03/24 04:26:59;;;;;;;;;;;;;;;15.56;70.83;99484.91;1056461;28;702;-66
2023/03/24 04:27:50;;;;;;;;;;;;;;;15.55;70.87;99485.88;1056620;28;614;-66
2023/03/24 04:28:40;;;;;;;;;;;;;;;15.54;70.67;99487.72;1055787;28;1028;-66
2023/03/24 04:29:32;;;;;;;;;;;;;;;15.54;70.90;99485.03;1053554;28;665;-67
2023/03/24 04:30:22;;;;;;;;;;;;;;;15.55;70.76;99478.72;1052054;28;792;-66